createdAt,value
2022-08-11T00:03:43.607Z,113.47
2022-08-11T00:08:50.502Z,115.41
2022-08-11T00:13:52.780Z,115.60
2022-08-11T00:18:57.073Z,117.41
2022-08-11T00:24:00.966Z,117.32
2022-08-11T00:29:10.374Z,117.73
2022-08-11T00:34:13.096Z,117.83
2022-08-11T00:39:16.571Z,118.34
2022-08-11T00:44:18.445Z,-4.85
2022-08-11T00:49:45.814Z,-5.92
2022-08-11T00:54:59.750Z,-4.57
2022-08-11T01:00:15.108Z,-2.49
2022-08-11T01:05:47.760Z,-3.26
2022-08-11T01:11:01.670Z,-3.63
2022-08-11T01:16:48.400Z,-0.66
2022-08-11T01:22:17.966Z,-1.60
2022-08-11T01:27:38.693Z,-1.53
2022-08-11T01:33:16.108Z,2.77
2022-08-11T01:38:27.327Z,2.96
2022-08-11T01:44:12.816Z,0.94
2022-08-11T01:50:06.552Z,0.82
2022-08-11T01:55:40.052Z,2.77
2022-08-11T02:00:59.210Z,2.81
2022-08-11T02:06:55.340Z,3.16
2022-08-11T02:12:04.221Z,7.18
2022-08-11T02:17:18.177Z,7.39
2022-08-11T02:22:44.263Z,9.80
2022-08-11T02:27:53.461Z,10.36
2022-08-11T02:33:23.202Z,12.53
2022-08-11T02:38:43.474Z,10.29
2022-08-11T02:43:53.189Z,9.48
2022-08-11T02:49:44.110Z,10.57
2022-08-11T02:54:48.888Z,10.55
2022-08-11T03:00:06.088Z,12.99
2022-08-11T03:05:11.997Z,17.34
2022-08-11T03:10:28.752Z,14.02
2022-08-11T03:16:06.963Z,13.12
2022-08-11T03:21:15.930Z,14.23
2022-08-11T03:26:29.816Z,12.89
2022-08-11T03:31:46.445Z,15.96
2022-08-11T03:37:44.616Z,19.46
2022-08-11T03:43:00.177Z,16.80
2022-08-11T03:48:37.788Z,16.09
2022-08-11T03:54:04.541Z,16.35
2022-08-11T03:59:21.648Z,14.34
2022-08-11T04:05:01.359Z,15.45
2022-08-11T04:10:12.375Z,16.29
2022-08-11T04:16:12.537Z,17.49
2022-08-11T04:21:27.097Z,16.38
2022-08-11T04:26:48.002Z,18.20
2022-08-11T04:32:02.044Z,18.55
2022-08-11T04:37:37.568Z,16.25
2022-08-11T04:43:23.589Z,17.09
2022-08-11T04:49:06.021Z,16.71
2022-08-11T04:54:48.076Z,17.46
2022-08-11T05:00:11.666Z,15.66
2022-08-11T05:05:32.809Z,14.57
2022-08-11T05:10:43.173Z,12.13
2022-08-11T05:16:10.621Z,10.67
2022-08-11T05:21:44.385Z,10.37
2022-08-11T05:27:13.348Z,9.24
2022-08-11T05:32:36.493Z,8.59
2022-08-11T05:38:03.071Z,9.44
2022-08-11T05:43:31.066Z,12.14
2022-08-11T05:48:53.105Z,10.28
2022-08-11T05:54:28.278Z,10.20
2022-08-11T05:59:31.909Z,9.91
2022-08-11T06:04:34.705Z,10.54
2022-08-11T06:09:50.750Z,9.56
2022-08-11T06:14:57.392Z,7.92
2022-08-11T06:20:05.561Z,6.74
2022-08-11T06:25:10.745Z,8.31
2022-08-11T06:30:17.191Z,6.32
2022-08-11T06:35:27.238Z,3.90
2022-08-11T06:41:07.877Z,2.09
2022-08-11T06:46:11.386Z,1.97
2022-08-11T06:51:32.360Z,0.05
2022-08-11T06:57:27.917Z,1.45
2022-08-11T07:02:31.412Z,1.71
2022-08-11T07:08:34.734Z,-0.74
2022-08-11T07:13:57.449Z,-5.46
2022-08-11T07:19:24.014Z,-5.66
2022-08-11T07:24:59.415Z,118.05
2022-08-11T07:30:07.918Z,116.51
2022-08-11T07:35:17.355Z,113.84
2022-08-11T07:40:23.956Z,114.41
2022-08-11T07:45:45.250Z,113.49
2022-08-11T07:51:06.193Z,110.06
2022-08-11T07:56:08.703Z,108.79
2022-08-11T08:01:43.415Z,107.35
2022-08-11T08:07:04.281Z,105.03
2022-08-11T08:12:26.306Z,103.00
2022-08-11T08:18:21.036Z,103.23
2022-08-11T08:23:10.870Z,102.03
2022-08-11T08:28:16.126Z,101.25
2022-08-11T08:33:26.696Z,98.72
2022-08-11T08:38:29.174Z,99.99
2022-08-11T08:43:32.560Z,97.88
2022-08-11T08:48:52.150Z,94.68
2022-08-11T08:54:07.187Z,92.99
2022-08-11T08:59:11.071Z,89.99
2022-08-11T09:04:18.977Z,86.94
2022-08-11T09:09:23.327Z,87.02
2022-08-11T09:14:51.850Z,83.45
2022-08-11T09:20:01.452Z,82.17
2022-08-11T09:25:24.343Z,84.39
2022-08-11T09:30:27.344Z,83.59
2022-08-11T09:35:29.780Z,82.07
2022-08-11T09:40:33.838Z,80.76
2022-08-11T09:45:40.492Z,80.04
2022-08-11T09:50:42.692Z,78.96
2022-08-11T09:55:46.543Z,79.35
2022-08-11T10:00:49.883Z,78.55
2022-08-11T10:06:15.599Z,77.06
2022-08-11T10:11:22.007Z,77.08
2022-08-11T10:16:27.084Z,77.10
2022-08-11T10:21:36.320Z,76.12
2022-08-11T10:27:00.748Z,76.18
2022-08-11T10:32:22.297Z,77.47
2022-08-11T10:38:08.818Z,78.43
2022-08-11T10:43:03.449Z,75.35
2022-08-11T10:48:07.173Z,72.54
2022-08-11T10:53:28.692Z,72.54
2022-08-11T10:58:50.735Z,73.12
2022-08-11T11:03:59.055Z,71.60
2022-08-11T11:09:08.502Z,71.31
2022-08-11T11:14:49.212Z,72.95
2022-08-11T11:19:57.754Z,73.04
2022-08-11T11:25:00.858Z,75.83
2022-08-11T11:30:08.992Z,75.62
2022-08-11T11:35:20.093Z,74.38
2022-08-11T11:40:28.724Z,72.49
2022-08-11T11:45:34.809Z,73.77
2022-08-11T11:50:38.091Z,72.93
2022-08-11T11:55:40.885Z,71.12
2022-08-11T12:01:03.005Z,71.06
2022-08-11T12:06:05.597Z,72.24
2022-08-11T12:11:29.723Z,70.64
2022-08-11T12:16:36.484Z,67.86
2022-08-11T12:22:00.870Z,66.10
2022-08-11T12:27:24.265Z,69.12
2022-08-11T12:32:31.533Z,78.14
2022-08-11T12:37:42.309Z,80.66
2022-08-11T12:43:20.692Z,86.07
2022-08-11T12:48:58.358Z,81.52
2022-08-11T12:54:18.302Z,84.26
2022-08-11T12:59:39.426Z,83.99
2022-08-11T13:04:59.274Z,84.93
2022-08-11T13:10:04.016Z,85.27
2022-08-11T13:15:06.736Z,86.16
2022-08-11T13:20:13.660Z,85.73
2022-08-11T13:25:17.479Z,85.54
2022-08-11T13:30:41.191Z,86.19
2022-08-11T13:35:52.109Z,86.52
2022-08-11T13:40:56.333Z,82.67
2022-08-11T13:46:18.608Z,88.53
2022-08-11T13:51:36.984Z,91.27
2022-08-11T13:56:40.809Z,90.69
2022-08-11T14:02:21.346Z,89.76
2022-08-11T14:07:12.276Z,85.50
2022-08-11T14:12:45.775Z,84.25
2022-08-11T14:18:09.439Z,82.64
2022-08-11T14:23:14.750Z,91.85
2022-08-11T14:28:31.849Z,91.85
2022-08-11T14:33:58.037Z,91.16
2022-08-11T14:38:59.120Z,88.28
2022-08-11T14:44:20.207Z,89.08
2022-08-11T14:49:23.136Z,84.82
2022-08-11T14:54:45.553Z,84.45
2022-08-11T14:59:49.256Z,84.78
2022-08-11T15:04:52.051Z,80.78
2022-08-11T15:10:12.254Z,80.74
2022-08-11T15:15:36.100Z,79.65
2022-08-11T15:20:56.627Z,77.84
2022-08-11T15:26:03.802Z,79.85
2022-08-11T15:31:24.418Z,82.61
2022-08-11T15:36:46.089Z,87.22
2022-08-11T15:42:11.838Z,84.05
2022-08-11T15:47:14.892Z,80.07
2022-08-11T15:52:18.261Z,78.28
2022-08-11T15:57:40.578Z,79.40
2022-08-11T16:02:50.770Z,77.24
2022-08-11T16:07:53.735Z,77.19
2022-08-11T16:13:05.834Z,73.25
2022-08-11T16:18:08.397Z,74.71
2022-08-11T16:23:10.748Z,74.17
2022-08-11T16:28:14.616Z,76.39
2022-08-11T16:33:48.622Z,73.35
2022-08-11T16:38:40.141Z,74.16
2022-08-11T16:44:05.178Z,72.67
2022-08-11T16:49:18.601Z,71.33
2022-08-11T16:54:20.833Z,71.65
2022-08-11T16:59:30.563Z,71.07
2022-08-11T17:05:09.333Z,69.97
2022-08-11T17:10:53.754Z,67.70
2022-08-11T17:16:06.950Z,65.63
2022-08-11T17:21:34.642Z,67.94
2022-08-11T17:26:59.786Z,71.04
2022-08-11T17:32:22.305Z,72.54
2022-08-11T17:37:25.232Z,74.08
2022-08-11T17:42:46.214Z,75.67
2022-08-11T17:48:07.242Z,77.32
2022-08-11T17:53:29.607Z,79.22
2022-08-11T17:58:50.585Z,79.67
2022-08-11T18:03:58.446Z,79.66
2022-08-11T18:09:21.170Z,81.19
2022-08-11T18:14:41.777Z,81.93
2022-08-11T18:20:02.281Z,82.45
2022-08-11T18:25:32.376Z,83.37
2022-08-11T18:31:03.269Z,83.90
2022-08-11T18:36:25.998Z,84.42
2022-08-11T18:41:48.880Z,86.62
2022-08-11T18:47:10.516Z,87.46
2022-08-11T18:52:34.272Z,88.78
2022-08-11T18:57:56.986Z,88.83
2022-08-11T19:03:19.550Z,88.97
2022-08-11T19:08:42.324Z,88.53
2022-08-11T19:14:04.663Z,88.99
2022-08-11T19:19:26.541Z,89.25
2022-08-11T19:24:49.378Z,89.38
2022-08-11T19:30:14.274Z,90.33
2022-08-11T19:35:45.499Z,90.91
2022-08-11T19:41:07.185Z,91.81
2022-08-11T19:46:28.839Z,93.17
2022-08-11T19:51:53.537Z,94.87
2022-08-11T19:57:15.907Z,94.56
2022-08-11T20:02:37.631Z,95.50
2022-08-11T20:07:59.179Z,95.88
2022-08-11T20:13:21.674Z,95.88
2022-08-11T20:18:43.322Z,96.98
2022-08-11T20:24:06.051Z,98.06
2022-08-11T20:29:27.497Z,99.58
2022-08-11T20:34:49.725Z,99.93
2022-08-11T20:40:14.625Z,99.96
2022-08-11T20:45:36.339Z,99.87
2022-08-11T20:51:17.371Z,99.87
2022-08-11T20:56:38.640Z,99.92
2022-08-11T21:02:03.108Z,100.93
2022-08-11T21:07:29.116Z,100.64
2022-08-11T21:12:50.710Z,100.41
2022-08-11T21:18:27.482Z,101.56
2022-08-11T21:23:51.768Z,100.96
2022-08-11T21:29:13.986Z,100.72
2022-08-11T21:34:36.877Z,101.69
2022-08-11T21:39:58.852Z,105.51
2022-08-11T21:45:20.106Z,105.24
2022-08-11T21:50:40.601Z,105.76
2022-08-11T21:56:01.787Z,104.26
2022-08-11T22:01:24.049Z,105.94
2022-08-11T22:06:45.349Z,106.09
2022-08-11T22:12:35.223Z,106.79
2022-08-11T22:17:45.925Z,106.31
2022-08-11T22:23:07.358Z,106.34
2022-08-11T22:28:28.916Z,106.23
2022-08-11T22:34:02.797Z,106.63
2022-08-11T22:39:25.306Z,107.28
2022-08-11T22:44:46.683Z,108.41
2022-08-11T22:50:11.800Z,108.41
2022-08-11T22:55:35.689Z,109.00
2022-08-11T23:00:56.662Z,108.65
2022-08-11T23:06:17.572Z,108.49
2022-08-11T23:12:02.544Z,108.95
2022-08-11T23:17:18.972Z,109.53
2022-08-11T23:22:50.288Z,109.75
2022-08-11T23:28:11.897Z,108.67
2022-08-11T23:33:32.702Z,110.04
2022-08-11T23:38:53.106Z,110.29
2022-08-11T23:44:13.989Z,110.94
2022-08-11T23:49:35.048Z,111.43
2022-08-11T23:54:57.982Z,110.87
